createdAt,value
2023-04-30T00:02:22.930Z,6.28
2023-04-30T00:04:55.804Z,6.20
2023-04-30T00:07:27.509Z,6.15
2023-04-30T00:09:58.596Z,6.29
2023-04-30T00:12:29.114Z,6.29
2023-04-30T00:14:59.597Z,6.24
2023-04-30T00:17:32.872Z,6.20
2023-04-30T00:20:05.479Z,6.17
2023-04-30T00:22:36.760Z,6.20
2023-04-30T00:25:12.255Z,6.25
2023-04-30T00:27:45.775Z,6.28
2023-04-30T00:30:17.723Z,6.20
2023-04-30T00:32:47.793Z,6.17
2023-04-30T00:35:17.697Z,5.98
2023-04-30T00:37:48.041Z,5.80
2023-04-30T00:40:34.278Z,5.70
2023-04-30T00:43:04.580Z,5.67
2023-04-30T00:45:33.591Z,5.67
2023-04-30T00:48:02.175Z,5.60
2023-04-30T00:50:32.278Z,5.52
2023-04-30T00:53:01.519Z,5.46
2023-04-30T00:55:30.445Z,5.41
2023-04-30T00:57:59.523Z,5.39
2023-04-30T01:00:28.519Z,5.37
2023-04-30T01:02:57.535Z,5.54
2023-04-30T01:05:26.443Z,5.69
2023-04-30T01:07:57.404Z,5.53
2023-04-30T01:10:30.565Z,5.43
2023-04-30T01:13:04.169Z,5.35
2023-04-30T01:15:37.395Z,5.29
2023-04-30T01:18:09.168Z,5.23
2023-04-30T01:20:40.606Z,5.17
2023-04-30T01:23:15.433Z,5.20
2023-04-30T01:25:46.390Z,5.12
2023-04-30T01:28:17.666Z,5.10
2023-04-30T01:30:46.533Z,4.99
2023-04-30T01:33:15.087Z,4.93
2023-04-30T01:36:02.514Z,4.88
2023-04-30T01:38:37.879Z,4.82
2023-04-30T01:41:10.642Z,4.83
2023-04-30T01:43:47.067Z,4.81
2023-04-30T01:46:20.353Z,4.89
2023-04-30T01:48:52.989Z,4.92
2023-04-30T01:51:25.394Z,4.90
2023-04-30T01:53:55.726Z,4.90
2023-04-30T01:56:28.533Z,4.90
2023-04-30T01:58:58.787Z,4.85
2023-04-30T02:01:28.251Z,4.79
2023-04-30T02:03:56.986Z,4.76
2023-04-30T02:06:28.597Z,4.78
2023-04-30T02:09:02.496Z,4.75
2023-04-30T02:11:31.526Z,4.77
2023-04-30T02:14:01.440Z,4.75
2023-04-30T02:16:29.787Z,4.67
2023-04-30T02:18:58.211Z,4.72
2023-04-30T02:21:38.352Z,4.68
2023-04-30T02:24:07.470Z,4.61
2023-04-30T02:26:36.057Z,4.55
2023-04-30T02:29:05.816Z,4.51
2023-04-30T02:31:34.352Z,4.48
2023-04-30T02:34:03.055Z,4.53
2023-04-30T02:36:36.349Z,4.52
2023-04-30T02:39:05.008Z,4.45
2023-04-30T02:41:33.688Z,4.39
2023-04-30T02:44:03.427Z,4.36
2023-04-30T02:46:33.172Z,4.41
2023-04-30T02:49:01.688Z,4.42
2023-04-30T02:51:30.148Z,4.40
2023-04-30T02:53:58.482Z,4.35
2023-04-30T02:56:26.999Z,4.37
2023-04-30T02:58:55.384Z,4.39
2023-04-30T03:01:23.746Z,4.47
2023-04-30T03:03:54.068Z,4.52
2023-04-30T03:06:22.689Z,4.60
2023-04-30T03:08:51.221Z,4.69
2023-04-30T03:11:19.671Z,4.76
2023-04-30T03:14:02.237Z,4.74
2023-04-30T03:16:31.256Z,4.76
2023-04-30T03:19:01.006Z,4.81
2023-04-30T03:21:30.002Z,4.84
2023-04-30T03:23:58.436Z,4.83
2023-04-30T03:26:27.473Z,4.80
2023-04-30T03:28:56.084Z,4.90
2023-04-30T03:31:24.676Z,4.82
2023-04-30T03:33:53.211Z,4.80
2023-04-30T03:36:23.048Z,4.83
2023-04-30T03:38:51.435Z,4.87
2023-04-30T03:41:19.938Z,4.92
2023-04-30T03:43:48.423Z,4.87
2023-04-30T03:46:16.932Z,4.88
2023-04-30T03:48:45.683Z,4.90
2023-04-30T03:51:14.332Z,4.85
2023-04-30T03:53:44.178Z,4.87
2023-04-30T03:56:14.065Z,4.90
2023-04-30T03:58:42.544Z,4.91
2023-04-30T04:01:11.085Z,5.00
2023-04-30T04:03:39.599Z,4.97
2023-04-30T04:06:08.419Z,4.89
2023-04-30T04:08:37.454Z,4.95
2023-04-30T04:11:07.216Z,4.79
2023-04-30T04:13:35.787Z,4.83
2023-04-30T04:16:04.215Z,4.74
2023-04-30T04:18:32.864Z,4.81
2023-04-30T04:21:01.536Z,4.84
2023-04-30T04:23:29.995Z,4.89
2023-04-30T04:25:58.498Z,4.83
2023-04-30T04:28:28.726Z,4.82
2023-04-30T04:30:57.370Z,4.77
2023-04-30T04:33:25.870Z,4.73
2023-04-30T04:35:54.165Z,4.76
2023-04-30T04:38:22.895Z,4.83
2023-04-30T04:40:54.732Z,4.99
2023-04-30T04:43:23.183Z,5.00
2023-04-30T04:45:53.431Z,5.05
2023-04-30T04:48:21.906Z,5.07
2023-04-30T04:50:50.570Z,5.01
2023-04-30T04:53:18.850Z,5.06
2023-04-30T04:55:47.210Z,5.19
2023-04-30T04:58:15.834Z,5.22
2023-04-30T05:00:45.207Z,5.25
2023-04-30T05:03:15.238Z,5.32
2023-04-30T05:05:44.223Z,5.37
2023-04-30T05:08:13.306Z,5.42
2023-04-30T05:10:41.695Z,5.42
2023-04-30T05:13:09.984Z,5.38
2023-04-30T05:15:39.047Z,5.41
2023-04-30T05:18:07.604Z,5.47
2023-04-30T05:20:37.399Z,5.50
2023-04-30T05:23:06.198Z,5.55
2023-04-30T05:25:34.574Z,5.60
2023-04-30T05:28:03.399Z,5.60
2023-04-30T05:30:31.820Z,5.66
2023-04-30T05:33:00.416Z,5.72
2023-04-30T05:35:28.883Z,5.74
2023-04-30T05:37:58.886Z,5.86
2023-04-30T05:40:27.580Z,5.92
2023-04-30T05:42:56.432Z,5.93
2023-04-30T05:45:24.945Z,6.03
2023-04-30T05:47:53.656Z,6.12
2023-04-30T05:50:22.207Z,6.25
2023-04-30T05:52:50.898Z,6.32
2023-04-30T05:55:20.691Z,6.37
2023-04-30T05:57:49.312Z,6.45
2023-04-30T06:00:17.956Z,6.58
2023-04-30T06:02:46.380Z,6.74
2023-04-30T06:05:16.289Z,6.93
2023-04-30T06:07:44.923Z,7.05
2023-04-30T06:10:13.661Z,7.06
2023-04-30T06:12:43.751Z,7.10
2023-04-30T06:15:12.289Z,7.09
2023-04-30T06:17:40.753Z,7.17
2023-04-30T06:20:23.324Z,7.25
2023-04-30T06:22:52.048Z,7.27
2023-04-30T06:25:21.763Z,7.33
2023-04-30T06:27:54.215Z,7.50
2023-04-30T06:30:22.943Z,7.64
2023-04-30T06:32:51.542Z,7.76
2023-04-30T06:35:19.996Z,7.79
2023-04-30T06:37:48.398Z,7.91
2023-04-30T06:40:16.826Z,8.05
2023-04-30T06:42:47.606Z,7.99
2023-04-30T06:45:17.750Z,8.07
2023-04-30T06:47:46.268Z,8.17
2023-04-30T06:50:15.639Z,8.42
2023-04-30T06:52:44.337Z,8.44
2023-04-30T06:55:12.646Z,8.53
2023-04-30T06:57:41.266Z,8.53
2023-04-30T07:00:09.855Z,8.65
2023-04-30T07:02:39.982Z,8.77
2023-04-30T07:05:09.155Z,8.88
2023-04-30T07:07:37.850Z,9.09
2023-04-30T07:10:06.945Z,9.26
2023-04-30T07:12:35.560Z,9.25
2023-04-30T07:15:04.195Z,9.37
2023-04-30T07:17:33.508Z,9.31
2023-04-30T07:20:04.633Z,9.58
2023-04-30T07:22:33.466Z,9.90
2023-04-30T07:25:02.020Z,9.98
2023-04-30T07:27:30.526Z,9.99
2023-04-30T07:29:58.974Z,10.11
2023-04-30T07:32:27.694Z,10.43
2023-04-30T07:34:56.064Z,10.06
2023-04-30T07:37:26.328Z,10.04
2023-04-30T07:39:55.200Z,10.34
2023-04-30T07:42:27.507Z,11.46
2023-04-30T07:44:56.628Z,13.05
2023-04-30T07:47:26.202Z,13.77
2023-04-30T07:49:55.173Z,13.95
2023-04-30T07:52:23.800Z,14.00
2023-04-30T07:54:54.685Z,15.07
2023-04-30T07:57:23.339Z,15.59
2023-04-30T07:59:53.188Z,15.93
2023-04-30T08:02:22.333Z,15.68
2023-04-30T08:04:50.950Z,17.18
2023-04-30T08:07:21.100Z,17.50
2023-04-30T08:09:49.499Z,17.43
2023-04-30T08:12:19.740Z,16.77
2023-04-30T08:14:48.622Z,18.55
2023-04-30T08:17:17.207Z,17.80
2023-04-30T08:19:45.849Z,17.79
2023-04-30T08:22:14.160Z,18.07
2023-04-30T08:24:43.070Z,17.43
2023-04-30T08:27:11.474Z,17.17
2023-04-30T08:29:41.537Z,18.43
2023-04-30T08:32:10.225Z,18.26
2023-04-30T08:34:40.581Z,19.34
2023-04-30T08:37:09.223Z,18.73
2023-04-30T08:39:37.680Z,18.24
2023-04-30T08:42:09.453Z,18.75
2023-04-30T08:44:39.773Z,18.80
2023-04-30T08:47:13.156Z,18.61
2023-04-30T08:49:41.722Z,18.25
2023-04-30T08:52:10.617Z,19.14
2023-04-30T08:54:39.444Z,18.62
2023-04-30T08:57:07.912Z,19.60
2023-04-30T08:59:46.204Z,20.45
2023-04-30T09:02:16.109Z,21.12
2023-04-30T09:04:44.721Z,20.02
2023-04-30T09:07:14.563Z,21.50
2023-04-30T09:09:43.255Z,21.88
2023-04-30T09:12:13.343Z,22.28
2023-04-30T09:14:41.905Z,24.63
2023-04-30T09:17:10.503Z,25.26
2023-04-30T09:19:40.547Z,24.43
2023-04-30T09:22:20.064Z,24.60
2023-04-30T09:24:49.497Z,24.29
2023-04-30T09:27:18.458Z,22.33
2023-04-30T09:29:47.792Z,21.40
2023-04-30T09:32:16.656Z,22.41
2023-04-30T09:34:46.896Z,22.88
2023-04-30T09:37:15.928Z,25.00
2023-04-30T09:39:48.348Z,25.16
2023-04-30T09:42:16.900Z,24.45
2023-04-30T09:44:45.365Z,25.52
2023-04-30T09:47:14.753Z,21.53
2023-04-30T09:49:44.779Z,25.25
2023-04-30T09:52:16.482Z,26.50
2023-04-30T09:54:45.897Z,23.97
2023-04-30T09:57:15.742Z,25.16
2023-04-30T09:59:46.058Z,25.05
2023-04-30T10:02:15.605Z,25.08
2023-04-30T10:04:45.420Z,26.02
2023-04-30T10:07:18.270Z,26.86
2023-04-30T10:09:51.031Z,27.03
2023-04-30T10:12:22.107Z,28.39
2023-04-30T10:14:53.815Z,29.89
2023-04-30T10:17:23.411Z,29.43
2023-04-30T10:19:53.464Z,25.94
2023-04-30T10:22:23.778Z,24.81
2023-04-30T10:24:53.824Z,24.94
2023-04-30T10:27:22.293Z,25.79
2023-04-30T10:29:51.643Z,22.73
2023-04-30T10:32:21.598Z,24.30
2023-04-30T10:34:53.531Z,25.41
2023-04-30T10:37:54.341Z,24.40
2023-04-30T10:40:22.921Z,24.96
2023-04-30T10:42:52.140Z,23.79
2023-04-30T10:45:21.457Z,26.10
2023-04-30T10:47:50.391Z,26.21
2023-04-30T10:50:20.518Z,26.72
2023-04-30T10:53:03.139Z,24.03
2023-04-30T10:55:31.944Z,22.92
2023-04-30T10:58:00.673Z,24.52
2023-04-30T11:00:30.064Z,25.59
2023-04-30T11:02:59.138Z,24.35
2023-04-30T11:05:35.647Z,23.03
2023-04-30T11:08:05.996Z,23.97
2023-04-30T11:10:40.924Z,26.11
2023-04-30T11:13:11.062Z,26.53
2023-04-30T11:15:41.753Z,25.57
2023-04-30T11:18:10.813Z,25.82
2023-04-30T11:20:41.753Z,23.66
2023-04-30T11:23:15.467Z,24.62
2023-04-30T11:25:46.718Z,25.42
2023-04-30T11:28:16.766Z,25.62
2023-04-30T11:30:52.426Z,24.24
2023-04-30T11:33:21.047Z,23.42
2023-04-30T11:35:52.324Z,23.69
2023-04-30T11:38:23.650Z,23.68
2023-04-30T11:40:52.095Z,23.45
2023-04-30T11:43:26.895Z,25.07
2023-04-30T11:46:06.523Z,22.95
2023-04-30T11:48:35.827Z,23.87
2023-04-30T11:51:04.841Z,27.68
2023-04-30T11:53:34.553Z,29.04
2023-04-30T11:56:06.371Z,26.82
2023-04-30T11:58:35.647Z,25.11
2023-04-30T12:01:04.011Z,24.09
2023-04-30T12:03:33.493Z,24.36
2023-04-30T12:06:02.616Z,24.42
2023-04-30T12:08:31.268Z,24.81
2023-04-30T12:11:01.072Z,23.58
2023-04-30T12:13:31.839Z,24.95
2023-04-30T12:16:00.871Z,24.96
2023-04-30T12:18:29.726Z,25.38
2023-04-30T12:21:12.625Z,26.23
2023-04-30T12:23:41.484Z,25.35
2023-04-30T12:26:19.342Z,25.14
2023-04-30T12:28:48.764Z,25.71
2023-04-30T12:31:18.438Z,25.04
2023-04-30T12:33:54.723Z,24.18
2023-04-30T12:36:23.262Z,24.59
2023-04-30T12:39:02.798Z,24.73
2023-04-30T12:41:32.913Z,25.49
2023-04-30T12:44:20.213Z,27.62
2023-04-30T12:46:49.138Z,26.26
2023-04-30T12:49:25.061Z,26.98
2023-04-30T12:51:53.827Z,24.28
2023-04-30T12:54:29.170Z,24.01
2023-04-30T12:57:03.470Z,25.68
2023-04-30T12:59:32.529Z,25.26
2023-04-30T13:02:07.959Z,26.56
2023-04-30T13:04:37.201Z,26.81
2023-04-30T13:07:05.688Z,25.95
2023-04-30T13:09:34.375Z,24.76
2023-04-30T13:12:04.662Z,25.01
2023-04-30T13:14:33.459Z,24.11
2023-04-30T13:17:04.997Z,25.14
2023-04-30T13:19:33.725Z,26.76
2023-04-30T13:22:02.520Z,27.62
2023-04-30T13:24:31.356Z,25.99
2023-04-30T13:27:00.483Z,25.83
2023-04-30T13:29:30.318Z,26.10
2023-04-30T13:31:59.236Z,26.26
2023-04-30T13:34:27.749Z,26.68
2023-04-30T13:36:56.450Z,26.87
2023-04-30T13:39:24.876Z,27.24
2023-04-30T13:41:53.358Z,26.02
2023-04-30T13:44:21.828Z,25.49
2023-04-30T13:46:51.684Z,27.25
2023-04-30T13:49:20.228Z,27.68
2023-04-30T13:51:48.676Z,27.73
2023-04-30T13:54:17.173Z,28.67
2023-04-30T13:56:45.816Z,25.15
2023-04-30T13:59:14.237Z,24.07
2023-04-30T14:01:42.716Z,24.00
2023-04-30T14:04:14.105Z,24.82
2023-04-30T14:06:45.408Z,23.75
2023-04-30T14:09:13.852Z,22.56
2023-04-30T14:11:42.517Z,22.80
2023-04-30T14:14:10.894Z,24.73
2023-04-30T14:16:39.422Z,25.29
2023-04-30T14:19:07.950Z,25.18
2023-04-30T14:21:38.094Z,24.64
2023-04-30T14:24:07.692Z,24.90
2023-04-30T14:26:36.665Z,24.51
2023-04-30T14:29:05.192Z,25.03
2023-04-30T14:31:33.782Z,24.54
2023-04-30T14:34:02.154Z,23.57
2023-04-30T14:36:30.680Z,23.38
2023-04-30T14:39:00.665Z,23.09
2023-04-30T14:41:29.279Z,23.04
2023-04-30T14:43:57.759Z,22.23
2023-04-30T14:46:26.520Z,21.95
2023-04-30T14:48:55.375Z,23.22
2023-04-30T14:51:25.862Z,23.56
2023-04-30T14:53:57.906Z,21.75
2023-04-30T14:56:29.555Z,22.13
2023-04-30T14:58:58.035Z,22.41
2023-04-30T15:01:28.496Z,21.39
2023-04-30T15:03:57.444Z,20.80
2023-04-30T15:06:26.378Z,20.09
2023-04-30T15:08:54.761Z,19.66
2023-04-30T15:11:24.229Z,20.03
2023-04-30T15:13:54.583Z,19.70
2023-04-30T15:16:23.281Z,19.27
2023-04-30T15:18:51.999Z,19.08
2023-04-30T15:21:20.447Z,19.15
2023-04-30T15:23:49.800Z,19.32
2023-04-30T15:26:18.242Z,19.84
2023-04-30T15:28:46.870Z,19.41
2023-04-30T15:31:17.130Z,19.28
2023-04-30T15:33:45.628Z,19.38
2023-04-30T15:36:14.284Z,19.49
2023-04-30T15:38:42.769Z,18.69
2023-04-30T15:41:11.466Z,18.37
2023-04-30T15:43:39.858Z,18.86
2023-04-30T15:46:08.642Z,18.22
2023-04-30T15:48:38.646Z,18.12
2023-04-30T15:51:07.442Z,18.21
2023-04-30T15:53:36.303Z,18.65
2023-04-30T15:56:05.525Z,18.66
2023-04-30T15:58:34.368Z,18.70
2023-04-30T16:01:03.150Z,18.72
2023-04-30T16:03:32.358Z,18.83
2023-04-30T16:06:02.841Z,18.46
2023-04-30T16:08:31.502Z,18.48
2023-04-30T16:11:01.200Z,18.57
2023-04-30T16:13:29.713Z,18.57
2023-04-30T16:15:58.156Z,18.60
2023-04-30T16:18:26.762Z,18.46
2023-04-30T16:20:55.162Z,17.90
2023-04-30T16:23:24.910Z,17.90
2023-04-30T16:25:53.427Z,17.52
2023-04-30T16:28:23.369Z,17.36
2023-04-30T16:30:52.305Z,17.26
2023-04-30T16:33:21.669Z,17.20
2023-04-30T16:35:50.104Z,17.38
2023-04-30T16:38:19.049Z,17.15
2023-04-30T16:40:49.229Z,17.22
2023-04-30T16:43:17.719Z,17.03
2023-04-30T16:45:46.541Z,16.90
2023-04-30T16:48:14.995Z,16.88
2023-04-30T16:50:43.668Z,16.78
2023-04-30T16:53:13.662Z,16.77
2023-04-30T16:55:42.376Z,17.08
2023-04-30T16:58:12.825Z,17.01
2023-04-30T17:00:43.815Z,16.88
2023-04-30T17:03:12.859Z,16.97
2023-04-30T17:05:43.559Z,16.58
2023-04-30T17:08:12.320Z,16.74
2023-04-30T17:10:41.463Z,16.91
2023-04-30T17:13:14.936Z,17.01
2023-04-30T17:15:50.792Z,16.81
2023-04-30T17:18:20.842Z,16.62
2023-04-30T17:20:53.050Z,16.41
2023-04-30T17:23:22.558Z,16.22
2023-04-30T17:25:54.161Z,16.30
2023-04-30T17:28:24.460Z,16.11
2023-04-30T17:30:53.809Z,15.97
2023-04-30T17:33:22.694Z,16.00
2023-04-30T17:35:51.430Z,16.01
2023-04-30T17:38:20.517Z,16.02
2023-04-30T17:40:53.318Z,15.97
2023-04-30T17:43:25.981Z,15.94
2023-04-30T17:45:57.550Z,15.95
2023-04-30T17:48:26.629Z,15.85
2023-04-30T17:50:55.779Z,15.71
2023-04-30T17:53:24.723Z,15.64
2023-04-30T17:55:53.853Z,15.53
2023-04-30T17:58:22.965Z,15.43
2023-04-30T18:00:56.674Z,15.19
2023-04-30T18:03:26.317Z,15.13
2023-04-30T18:05:55.608Z,14.98
2023-04-30T18:08:24.277Z,14.96
2023-04-30T18:10:54.306Z,14.82
2023-04-30T18:13:23.094Z,14.89
2023-04-30T18:15:53.171Z,14.75
2023-04-30T18:18:24.314Z,14.57
2023-04-30T18:20:53.314Z,14.47
2023-04-30T18:23:22.640Z,14.37
2023-04-30T18:25:51.796Z,14.31
2023-04-30T18:28:20.720Z,14.27
2023-04-30T18:30:49.896Z,14.12
2023-04-30T18:33:20.054Z,14.02
2023-04-30T18:35:51.495Z,13.93
2023-04-30T18:38:20.718Z,13.92
2023-04-30T18:40:54.207Z,13.80
2023-04-30T18:43:23.386Z,13.78
2023-04-30T18:45:52.738Z,13.57
2023-04-30T18:48:23.882Z,13.49
2023-04-30T18:50:52.439Z,13.45
2023-04-30T18:53:21.483Z,13.35
2023-04-30T18:55:50.310Z,13.31
2023-04-30T18:58:19.666Z,13.19
2023-04-30T19:00:49.509Z,13.14
2023-04-30T19:03:18.194Z,13.07
2023-04-30T19:05:48.588Z,13.04
2023-04-30T19:08:17.595Z,12.91
2023-04-30T19:10:49.093Z,12.88
2023-04-30T19:13:18.582Z,12.76
2023-04-30T19:15:49.588Z,12.66
2023-04-30T19:18:18.024Z,12.65
2023-04-30T19:20:57.114Z,12.57
2023-04-30T19:23:25.588Z,12.60
2023-04-30T19:25:54.052Z,12.57
2023-04-30T19:28:22.702Z,12.55
2023-04-30T19:30:51.896Z,12.45
2023-04-30T19:33:21.531Z,12.34
2023-04-30T19:35:51.252Z,12.30
2023-04-30T19:38:22.577Z,12.21
2023-04-30T19:40:53.996Z,12.12
2023-04-30T19:43:24.231Z,12.09
2023-04-30T19:45:53.907Z,12.04
2023-04-30T19:48:22.836Z,11.99
2023-04-30T19:50:53.526Z,11.91
2023-04-30T19:53:31.763Z,11.87
2023-04-30T19:56:01.543Z,11.90
2023-04-30T19:58:30.534Z,11.87
2023-04-30T20:01:04.811Z,11.83
2023-04-30T20:03:37.129Z,11.84
2023-04-30T20:06:16.164Z,11.84
2023-04-30T20:08:47.234Z,11.74
2023-04-30T20:11:22.766Z,11.77
2023-04-30T20:13:55.685Z,11.63
2023-04-30T20:16:24.303Z,11.59
2023-04-30T20:18:52.795Z,11.55
2023-04-30T20:21:29.044Z,11.58
2023-04-30T20:24:00.507Z,11.53
2023-04-30T20:26:29.307Z,11.54
2023-04-30T20:28:58.116Z,11.52
2023-04-30T20:31:31.385Z,11.47
2023-04-30T20:34:00.663Z,11.47
2023-04-30T20:36:31.598Z,11.47
2023-04-30T20:39:01.602Z,11.54
2023-04-30T20:41:30.498Z,11.46
2023-04-30T20:44:00.048Z,11.51
2023-04-30T20:46:28.934Z,11.42
2023-04-30T20:49:02.456Z,11.39
2023-04-30T20:51:33.926Z,11.33
2023-04-30T20:54:11.367Z,11.30
2023-04-30T20:56:40.434Z,11.25
2023-04-30T20:59:08.977Z,11.24
2023-04-30T21:01:37.595Z,11.09
2023-04-30T21:04:06.818Z,10.99
2023-04-30T21:06:35.233Z,11.02
2023-04-30T21:09:06.202Z,10.95
2023-04-30T21:11:34.689Z,10.96
2023-04-30T21:14:03.010Z,10.95
2023-04-30T21:16:31.772Z,10.82
2023-04-30T21:19:00.844Z,10.82
2023-04-30T21:21:29.933Z,10.74
2023-04-30T21:24:00.933Z,10.73
2023-04-30T21:26:30.713Z,10.73
2023-04-30T21:28:59.185Z,10.68
2023-04-30T21:31:42.159Z,10.59
2023-04-30T21:34:10.735Z,10.57
2023-04-30T21:36:39.208Z,10.48
2023-04-30T21:39:07.663Z,10.47
2023-04-30T21:41:37.456Z,10.42
2023-04-30T21:44:06.004Z,10.52
2023-04-30T21:46:34.490Z,10.45
2023-04-30T21:49:02.996Z,10.51
2023-04-30T21:51:31.971Z,10.48
2023-04-30T21:54:00.286Z,10.40
2023-04-30T21:56:28.644Z,10.33
2023-04-30T21:58:58.761Z,10.31
2023-04-30T22:01:30.096Z,10.28
2023-04-30T22:03:58.960Z,10.25
2023-04-30T22:06:28.682Z,10.18
2023-04-30T22:08:57.521Z,10.17
2023-04-30T22:11:25.933Z,10.19
2023-04-30T22:14:15.987Z,10.16
2023-04-30T22:16:44.471Z,10.11
2023-04-30T22:19:12.900Z,10.09
2023-04-30T22:21:41.443Z,10.14
2023-04-30T22:24:09.986Z,10.05
2023-04-30T22:26:38.382Z,9.95
2023-04-30T22:29:06.949Z,9.93
2023-04-30T22:31:36.943Z,9.95
2023-04-30T22:34:06.694Z,9.89
2023-04-30T22:36:35.163Z,9.91
2023-04-30T22:39:04.051Z,9.84
2023-04-30T22:41:34.217Z,9.88
2023-04-30T22:44:03.008Z,9.83
2023-04-30T22:46:33.568Z,9.75
2023-04-30T22:49:03.656Z,9.72
2023-04-30T22:51:34.717Z,9.71
2023-04-30T22:54:03.605Z,9.73
2023-04-30T22:56:33.884Z,9.67
2023-04-30T22:59:02.468Z,9.66
2023-04-30T23:01:30.916Z,9.63
2023-04-30T23:03:59.467Z,9.61
2023-04-30T23:06:31.118Z,9.52
2023-04-30T23:09:00.173Z,9.45
2023-04-30T23:11:28.588Z,9.42
2023-04-30T23:13:57.165Z,9.40
2023-04-30T23:16:25.610Z,9.43
2023-04-30T23:18:54.008Z,9.45
2023-04-30T23:21:22.648Z,9.44
2023-04-30T23:23:52.652Z,9.44
2023-04-30T23:26:24.304Z,9.48
2023-04-30T23:28:53.450Z,9.44
2023-04-30T23:31:22.202Z,9.32
2023-04-30T23:33:50.956Z,9.32
2023-04-30T23:36:19.392Z,9.25
2023-04-30T23:38:48.074Z,9.29
2023-04-30T23:41:17.837Z,9.25
2023-04-30T23:43:46.133Z,9.22
2023-04-30T23:46:16.017Z,9.11
2023-04-30T23:48:44.441Z,9.09
2023-04-30T23:51:12.896Z,9.02
2023-04-30T23:53:41.527Z,9.02
2023-04-30T23:56:09.865Z,9.00
2023-04-30T23:58:39.554Z,9.04
